Time;durP1;ratioP1;P1;durP2;ratioP2;P2;SDS_P1;SDS_P2;PMS_P1;PMS_P2;Temp;Humidity;BMP_temperature;BMP_pressure;BME280_temperature;BME280_humidity;BME280_pressure;Samples;Min_cycle;Max_cycle;Signal;HPM_P1;HPM_P2
2023/12/02 00:01:55;;;;;;;8.80;6.10;;;;;;;;;;5084475;28;20212;-33
2023/12/02 00:04:22;;;;;;;8.50;5.87;;;;;;;;;;5078856;28;20232;-32
2023/12/02 00:06:50;;;;;;;7.77;5.90;;;;;;;;;;5072594;28;20208;-32
2023/12/02 00:09:18;;;;;;;10.43;5.93;;;;;;;;;;5086338;28;20231;-35
2023/12/02 00:11:50;;;;;;;8.73;6.20;;;;;;;;;;5081404;28;20240;-35
2023/12/02 00:14:17;;;;;;;6.73;5.83;;;;;;;;;;5077077;28;20229;-35
2023/12/02 00:16:44;;;;;;;8.47;6.60;;;;;;;;;;5082922;28;20296;-31
2023/12/02 00:19:11;;;;;;;8.30;5.87;;;;;;;;;;5078297;28;20197;-34
2023/12/02 00:21:38;;;;;;;8.67;6.10;;;;;;;;;;5088775;28;20209;-38
2023/12/02 00:24:05;;;;;;;8.63;6.20;;;;;;;;;;5074554;28;20221;-33
2023/12/02 00:26:34;;;;;;;11.17;7.00;;;;;;;;;;5088674;28;20320;-36
2023/12/02 00:29:01;;;;;;;8.57;6.10;;;;;;;;;;5067600;28;20228;-32
2023/12/02 00:31:28;;;;;;;8.13;5.80;;;;;;;;;;5086579;28;20205;-37
2023/12/02 00:33:57;;;;;;;8.47;6.40;;;;;;;;;;5087244;28;20231;-31
2023/12/02 00:36:24;;;;;;;8.17;5.87;;;;;;;;;;5094990;28;20216;-33
2023/12/02 00:38:51;;;;;;;8.27;5.50;;;;;;;;;;5087978;28;20223;-34
2023/12/02 00:41:18;;;;;;;8.33;5.47;;;;;;;;;;5081152;28;20212;-29
2023/12/02 00:43:47;;;;;;;8.77;6.47;;;;;;;;;;5095854;28;20224;-35
2023/12/02 00:46:14;;;;;;;9.23;5.87;;;;;;;;;;5097317;28;20660;-36
2023/12/02 00:48:41;;;;;;;9.10;6.60;;;;;;;;;;5106413;28;20211;-32
2023/12/02 00:51:09;;;;;;;10.03;6.37;;;;;;;;;;5084930;28;20300;-34
2023/12/02 00:53:37;;;;;;;7.53;5.70;;;;;;;;;;5091591;28;20216;-32
2023/12/02 00:56:04;;;;;;;7.07;5.30;;;;;;;;;;5091282;28;20210;-34
2023/12/02 00:58:31;;;;;;;8.00;5.97;;;;;;;;;;5088453;28;20335;-32
2023/12/02 01:01:00;;;;;;;9.03;6.20;;;;;;;;;;5094108;28;20208;-31
2023/12/02 01:03:27;;;;;;;8.40;5.97;;;;;;;;;;5098127;28;20214;-38
2023/12/02 01:05:54;;;;;;;8.27;6.50;;;;;;;;;;5104874;28;20215;-30
2023/12/02 01:08:21;;;;;;;8.47;6.40;;;;;;;;;;5078468;28;20575;-32
2023/12/02 01:10:49;;;;;;;8.80;5.97;;;;;;;;;;5088458;28;20209;-35
2023/12/02 01:13:16;;;;;;;8.53;5.93;;;;;;;;;;5097225;28;20334;-30
2023/12/02 01:15:43;;;;;;;8.47;5.90;;;;;;;;;;5086115;28;20303;-33
2023/12/02 01:18:11;;;;;;;9.50;6.27;;;;;;;;;;5096335;28;20279;-30
2023/12/02 01:20:38;;;;;;;8.13;6.07;;;;;;;;;;5097148;28;20206;-32
2023/12/02 01:23:05;;;;;;;7.33;5.40;;;;;;;;;;5101874;28;20195;-29
2023/12/02 01:25:33;;;;;;;9.37;6.67;;;;;;;;;;5082861;28;20221;-38
2023/12/02 01:28:00;;;;;;;8.87;6.57;;;;;;;;;;5096229;28;20215;-36
2023/12/02 01:30:27;;;;;;;8.03;5.33;;;;;;;;;;5079642;28;20210;-32
2023/12/02 01:32:54;;;;;;;8.37;6.07;;;;;;;;;;5093567;28;20338;-32
2023/12/02 01:35:25;;;;;;;11.93;6.90;;;;;;;;;;5091412;28;20220;-33
2023/12/02 01:37:52;;;;;;;8.53;6.83;;;;;;;;;;5088652;28;20317;-35
2023/12/02 01:40:19;;;;;;;8.77;5.83;;;;;;;;;;5076211;28;20265;-37
2023/12/02 01:42:46;;;;;;;10.10;6.20;;;;;;;;;;5077552;28;20204;-34
2023/12/02 01:45:13;;;;;;;9.30;6.80;;;;;;;;;;5071359;28;20208;-34
2023/12/02 01:47:41;;;;;;;10.47;6.97;;;;;;;;;;5087976;28;20212;-32
2023/12/02 01:50:09;;;;;;;7.70;5.87;;;;;;;;;;5107876;28;20200;-33
2023/12/02 01:52:37;;;;;;;9.57;6.90;;;;;;;;;;5097629;28;20215;-35
2023/12/02 01:55:05;;;;;;;12.33;8.20;;;;;;;;;;5078581;28;20222;-35
2023/12/02 01:57:33;;;;;;;10.23;6.93;;;;;;;;;;5086273;28;20205;-31
2023/12/02 02:00:00;;;;;;;11.07;7.97;;;;;;;;;;5074278;28;20201;-35
2023/12/02 02:02:27;;;;;;;10.10;6.63;;;;;;;;;;5072133;28;20310;-36
2023/12/02 02:04:54;;;;;;;12.87;8.87;;;;;;;;;;5088067;28;20234;-33
2023/12/02 02:07:22;;;;;;;10.73;6.87;;;;;;;;;;5098214;28;20210;-33
2023/12/02 02:09:51;;;;;;;11.23;7.60;;;;;;;;;;5084834;28;20208;-38
2023/12/02 02:12:18;;;;;;;13.43;8.30;;;;;;;;;;5068946;28;20235;-31
2023/12/02 02:14:45;;;;;;;9.17;6.93;;;;;;;;;;5084855;28;20232;-31
2023/12/02 02:17:12;;;;;;;11.97;7.83;;;;;;;;;;5099957;28;20205;-33
2023/12/02 02:19:39;;;;;;;12.70;8.03;;;;;;;;;;5091208;28;20205;-29
2023/12/02 02:22:08;;;;;;;13.80;7.97;;;;;;;;;;5100420;28;20209;-33
2023/12/02 02:24:35;;;;;;;10.03;6.77;;;;;;;;;;5076324;28;20236;-32
2023/12/02 02:27:02;;;;;;;12.20;7.67;;;;;;;;;;5100132;28;20223;-35
2023/12/02 02:29:30;;;;;;;13.07;8.90;;;;;;;;;;5088059;28;20208;-33
2023/12/02 02:31:57;;;;;;;12.30;7.50;;;;;;;;;;5101804;28;20208;-33
2023/12/02 02:34:25;;;;;;;9.97;7.30;;;;;;;;;;5112445;28;20216;-33
2023/12/02 02:36:52;;;;;;;13.70;8.43;;;;;;;;;;5103256;28;20212;-33
2023/12/02 02:39:21;;;;;;;14.67;9.07;;;;;;;;;;5089437;28;20233;-36
2023/12/02 02:41:48;;;;;;;11.80;7.20;;;;;;;;;;5089785;28;20218;-36
2023/12/02 02:44:15;;;;;;;12.30;8.23;;;;;;;;;;5080626;28;20294;-35
2023/12/02 02:46:43;;;;;;;12.63;7.83;;;;;;;;;;5101160;28;20207;-34
2023/12/02 02:49:10;;;;;;;10.07;6.70;;;;;;;;;;5101822;28;20255;-37
2023/12/02 02:51:37;;;;;;;11.43;7.73;;;;;;;;;;5103527;28;20214;-33
2023/12/02 02:54:04;;;;;;;14.80;8.43;;;;;;;;;;5081108;28;20255;-31
2023/12/02 02:56:32;;;;;;;13.90;8.17;;;;;;;;;;5097687;28;20211;-33
2023/12/02 02:58:59;;;;;;;11.67;7.30;;;;;;;;;;5087099;28;20205;-32
2023/12/02 03:01:27;;;;;;;17.43;9.73;;;;;;;;;;5097128;28;20211;-36
2023/12/02 03:03:54;;;;;;;11.10;7.63;;;;;;;;;;5109391;28;20238;-32
2023/12/02 03:06:21;;;;;;;15.67;9.30;;;;;;;;;;5110091;28;20207;-33
2023/12/02 03:08:48;;;;;;;18.80;11.30;;;;;;;;;;5088827;28;20208;-36
2023/12/02 03:11:15;;;;;;;15.57;9.27;;;;;;;;;;5086375;28;20201;-34
2023/12/02 03:13:43;;;;;;;11.43;7.83;;;;;;;;;;5091637;28;20231;-37
2023/12/02 03:16:11;;;;;;;17.20;9.97;;;;;;;;;;5083976;28;20199;-36
2023/12/02 03:18:38;;;;;;;14.43;9.00;;;;;;;;;;5081927;28;20224;-38
2023/12/02 03:21:05;;;;;;;15.50;9.97;;;;;;;;;;5093954;28;20305;-33
2023/12/02 03:23:33;;;;;;;18.50;10.27;;;;;;;;;;5087053;28;20198;-34
2023/12/02 03:26:00;;;;;;;18.30;9.87;;;;;;;;;;5098143;28;20535;-34
2023/12/02 03:28:27;;;;;;;13.90;8.00;;;;;;;;;;5080949;28;20215;-35
2023/12/02 03:30:56;;;;;;;14.43;9.00;;;;;;;;;;5078718;28;20206;-35
2023/12/02 03:33:23;;;;;;;17.00;10.63;;;;;;;;;;5103797;28;20302;-34
2023/12/02 03:35:50;;;;;;;19.83;11.47;;;;;;;;;;5100454;28;20208;-32
2023/12/02 03:38:17;;;;;;;13.67;9.63;;;;;;;;;;5098379;28;20204;-35
2023/12/02 03:40:44;;;;;;;19.90;10.50;;;;;;;;;;5090322;28;20326;-32
2023/12/02 03:43:11;;;;;;;18.80;10.80;;;;;;;;;;5090827;28;20211;-36
2023/12/02 03:45:39;;;;;;;18.40;9.97;;;;;;;;;;5084472;28;20228;-38
2023/12/02 03:48:07;;;;;;;19.00;11.83;;;;;;;;;;5109869;28;20200;-36
2023/12/02 03:50:34;;;;;;;18.63;10.93;;;;;;;;;;5101336;28;20229;-31
2023/12/02 03:53:02;;;;;;;19.30;10.93;;;;;;;;;;5095027;28;20215;-37
2023/12/02 03:55:29;;;;;;;19.17;10.70;;;;;;;;;;5085355;28;20229;-33
2023/12/02 03:57:56;;;;;;;18.00;10.33;;;;;;;;;;5091436;28;20196;-35
2023/12/02 04:00:23;;;;;;;18.67;10.97;;;;;;;;;;5089827;28;20196;-35
2023/12/02 04:02:51;;;;;;;21.10;12.17;;;;;;;;;;5093649;28;20216;-39
2023/12/02 04:05:19;;;;;;;19.73;10.53;;;;;;;;;;5096143;28;20256;-35
2023/12/02 04:07:46;;;;;;;17.53;10.67;;;;;;;;;;5093657;28;20215;-33
2023/12/02 04:10:13;;;;;;;20.53;10.90;;;;;;;;;;5080918;28;20204;-33
2023/12/02 04:12:41;;;;;;;19.27;10.77;;;;;;;;;;5105307;28;20212;-34
2023/12/02 04:15:08;;;;;;;17.07;10.67;;;;;;;;;;5078169;28;20228;-34
2023/12/02 04:17:35;;;;;;;21.43;11.37;;;;;;;;;;5104846;28;20212;-33
2023/12/02 04:20:08;;;;;;;17.73;10.13;;;;;;;;;;5098302;28;20208;-32
2023/12/02 04:22:38;;;;;;;17.33;10.93;;;;;;;;;;5088368;28;20208;-36
2023/12/02 04:25:06;;;;;;;19.27;10.53;;;;;;;;;;5087626;28;20228;-32
2023/12/02 04:27:33;;;;;;;20.90;11.57;;;;;;;;;;5092752;28;20204;-36
2023/12/02 04:30:00;;;;;;;19.00;11.13;;;;;;;;;;5076700;28;20236;-31
2023/12/02 04:32:28;;;;;;;16.77;10.17;;;;;;;;;;5091400;28;20232;-33
2023/12/02 04:34:55;;;;;;;16.80;9.80;;;;;;;;;;5098388;28;20247;-31
2023/12/02 04:37:24;;;;;;;16.77;10.17;;;;;;;;;;5095831;28;20200;-36
2023/12/02 04:39:52;;;;;;;19.90;10.40;;;;;;;;;;5081945;28;20209;-32
2023/12/02 04:42:19;;;;;;;16.90;9.83;;;;;;;;;;5100349;28;20208;-38
2023/12/02 04:44:46;;;;;;;20.00;10.97;;;;;;;;;;5076153;28;20232;-33
2023/12/02 04:47:13;;;;;;;16.30;10.43;;;;;;;;;;5101644;28;20267;-36
2023/12/02 04:49:41;;;;;;;17.70;10.40;;;;;;;;;;5109192;28;20218;-33
2023/12/02 04:52:09;;;;;;;16.17;9.90;;;;;;;;;;5091857;28;20232;-34
2023/12/02 04:54:36;;;;;;;16.23;10.03;;;;;;;;;;5092866;28;20220;-33
2023/12/02 04:57:06;;;;;;;15.90;10.00;;;;;;;;;;5079603;28;20229;-35
2023/12/02 04:59:33;;;;;;;15.07;9.73;;;;;;;;;;5072731;28;20217;-35
2023/12/02 05:02:00;;;;;;;18.90;10.50;;;;;;;;;;5084584;28;20208;-33
2023/12/02 05:04:27;;;;;;;19.10;11.53;;;;;;;;;;5102152;28;20232;-32
2023/12/02 05:06:54;;;;;;;16.33;10.07;;;;;;;;;;5107362;28;20207;-36
2023/12/02 05:09:21;;;;;;;16.23;9.67;;;;;;;;;;5074307;28;20250;-35
2023/12/02 05:11:48;;;;;;;18.83;10.47;;;;;;;;;;5096448;28;20260;-33
2023/12/02 05:14:17;;;;;;;16.83;10.30;;;;;;;;;;5090747;28;20236;-32
2023/12/02 05:16:44;;;;;;;13.43;8.77;;;;;;;;;;5080269;28;20208;-36
2023/12/02 05:19:12;;;;;;;16.10;10.10;;;;;;;;;;5078341;28;20197;-33
2023/12/02 05:21:41;;;;;;;15.50;8.63;;;;;;;;;;5086586;28;20203;-36
2023/12/02 05:24:08;;;;;;;15.13;9.63;;;;;;;;;;5095010;28;20225;-32
2023/12/02 05:26:36;;;;;;;14.70;9.07;;;;;;;;;;5093067;28;20243;-32
2023/12/02 05:29:03;;;;;;;14.33;8.90;;;;;;;;;;5075273;28;20272;-39
2023/12/02 05:31:31;;;;;;;13.30;8.93;;;;;;;;;;5089519;28;20208;-32
2023/12/02 05:33:58;;;;;;;13.57;8.07;;;;;;;;;;5096537;28;20541;-32
2023/12/02 05:36:26;;;;;;;18.13;10.73;;;;;;;;;;5080979;28;20231;-30
2023/12/02 05:38:53;;;;;;;12.80;8.60;;;;;;;;;;5079654;28;20204;-36
2023/12/02 05:41:20;;;;;;;16.60;10.00;;;;;;;;;;5082184;28;20211;-31
2023/12/02 05:43:47;;;;;;;16.43;8.77;;;;;;;;;;5090740;28;20220;-32
2023/12/02 05:46:16;;;;;;;13.47;9.03;;;;;;;;;;5086777;28;20419;-39
2023/12/02 05:48:44;;;;;;;15.17;8.63;;;;;;;;;;5096274;28;20204;-33
2023/12/02 05:51:13;;;;;;;13.10;8.23;;;;;;;;;;5082153;28;20201;-32
2023/12/02 05:53:40;;;;;;;16.63;9.57;;;;;;;;;;5081021;28;20240;-32
2023/12/02 05:56:07;;;;;;;13.97;8.57;;;;;;;;;;5080891;28;20253;-35
2023/12/02 05:58:35;;;;;;;18.43;10.00;;;;;;;;;;5074435;28;20299;-35
2023/12/02 06:01:02;;;;;;;13.73;8.07;;;;;;;;;;5081017;28;20204;-34
2023/12/02 06:03:30;;;;;;;15.13;8.73;;;;;;;;;;5102767;28;20222;-32
2023/12/02 06:05:58;;;;;;;14.70;8.70;;;;;;;;;;5102769;28;20229;-36
2023/12/02 06:08:25;;;;;;;12.63;8.33;;;;;;;;;;5093347;28;20208;-39
2023/12/02 06:10:52;;;;;;;10.70;7.20;;;;;;;;;;5094158;28;20215;-31
2023/12/02 06:13:20;;;;;;;12.40;7.70;;;;;;;;;;5090214;28;20200;-33
2023/12/02 06:15:47;;;;;;;12.03;7.83;;;;;;;;;;5082994;28;20224;-34
2023/12/02 06:18:14;;;;;;;14.83;8.07;;;;;;;;;;5102287;28;20210;-35
2023/12/02 06:20:41;;;;;;;10.93;7.20;;;;;;;;;;5111282;28;20203;-33
2023/12/02 06:23:09;;;;;;;14.40;8.80;;;;;;;;;;5090639;28;20213;-36
2023/12/02 06:25:37;;;;;;;10.97;7.60;;;;;;;;;;5084107;28;20248;-32
2023/12/02 06:28:05;;;;;;;13.20;8.13;;;;;;;;;;5109119;28;20211;-33
2023/12/02 06:30:32;;;;;;;12.93;8.47;;;;;;;;;;5073204;28;20211;-36
2023/12/02 06:32:59;;;;;;;9.87;6.70;;;;;;;;;;5099235;28;20216;-31
2023/12/02 06:35:26;;;;;;;11.93;7.57;;;;;;;;;;5088691;28;20235;-34
2023/12/02 06:37:54;;;;;;;9.13;6.83;;;;;;;;;;5097347;28;20213;-37
2023/12/02 06:40:22;;;;;;;12.53;9.43;;;;;;;;;;5083610;28;20212;-30
2023/12/02 06:42:49;;;;;;;10.57;7.63;;;;;;;;;;5101556;28;20205;-29
2023/12/02 06:45:16;;;;;;;10.80;7.37;;;;;;;;;;5087697;28;20219;-35
2023/12/02 06:47:44;;;;;;;12.97;7.27;;;;;;;;;;5106045;28;20211;-35
2023/12/02 06:50:12;;;;;;;8.47;5.53;;;;;;;;;;5090821;28;20216;-36
2023/12/02 06:52:39;;;;;;;10.70;7.33;;;;;;;;;;5085778;28;20209;-35
2023/12/02 06:55:09;;;;;;;8.27;6.20;;;;;;;;;;5084675;28;20234;-32
2023/12/02 06:57:37;;;;;;;8.03;5.63;;;;;;;;;;5093113;28;20209;-35
2023/12/02 07:00:07;;;;;;;10.77;6.97;;;;;;;;;;5073421;28;20211;-30
2023/12/02 07:02:35;;;;;;;9.40;6.37;;;;;;;;;;5097572;28;20245;-34
2023/12/02 07:05:03;;;;;;;9.20;6.13;;;;;;;;;;5100370;28;20283;-33
2023/12/02 07:07:30;;;;;;;6.97;4.83;;;;;;;;;;5086928;28;20218;-36
2023/12/02 07:09:58;;;;;;;10.60;6.37;;;;;;;;;;5086808;28;20204;-30
2023/12/02 07:12:25;;;;;;;8.97;5.97;;;;;;;;;;5093247;28;20219;-36
2023/12/02 07:14:54;;;;;;;6.77;5.63;;;;;;;;;;5079848;28;20220;-37
2023/12/02 07:17:21;;;;;;;8.10;5.13;;;;;;;;;;5091415;28;20565;-30
2023/12/02 07:19:48;;;;;;;7.30;5.70;;;;;;;;;;5103434;28;20203;-34
2023/12/02 07:22:16;;;;;;;8.23;5.43;;;;;;;;;;5099646;28;20219;-30
2023/12/02 07:24:43;;;;;;;6.90;5.37;;;;;;;;;;5088493;28;20263;-33
2023/12/02 07:27:10;;;;;;;6.73;5.00;;;;;;;;;;5086952;28;20251;-30
2023/12/02 07:29:37;;;;;;;8.23;5.43;;;;;;;;;;5089055;28;20219;-35
2023/12/02 07:32:06;;;;;;;6.73;4.90;;;;;;;;;;5097353;28;20204;-32
2023/12/02 07:34:33;;;;;;;7.07;4.97;;;;;;;;;;5096141;28;20232;-33
2023/12/02 07:37:00;;;;;;;5.93;5.10;;;;;;;;;;5083904;28;20205;-33
2023/12/02 07:39:27;;;;;;;7.40;5.70;;;;;;;;;;5085787;28;20210;-33
2023/12/02 07:41:54;;;;;;;8.00;5.40;;;;;;;;;;5093742;28;20224;-33
2023/12/02 07:44:26;;;;;;;6.67;4.83;;;;;;;;;;5089712;28;20230;-36
2023/12/02 07:46:53;;;;;;;6.93;5.47;;;;;;;;;;5091815;28;20564;-32
2023/12/02 07:49:21;;;;;;;8.17;5.10;;;;;;;;;;5101227;28;20208;-35
2023/12/02 07:51:48;;;;;;;8.17;5.13;;;;;;;;;;5101427;28;20287;-36
2023/12/02 07:54:16;;;;;;;7.40;5.23;;;;;;;;;;5081790;28;20441;-37
2023/12/02 07:56:43;;;;;;;6.43;5.20;;;;;;;;;;5098713;28;20231;-33
2023/12/02 07:59:11;;;;;;;10.30;4.80;;;;;;;;;;5087602;28;20208;-33
2023/12/02 08:01:38;;;;;;;6.23;4.60;;;;;;;;;;5084180;28;20283;-37
2023/12/02 08:04:05;;;;;;;7.57;4.97;;;;;;;;;;5082510;28;20229;-33
2023/12/02 08:06:34;;;;;;;5.70;4.43;;;;;;;;;;5085260;28;20269;-33
2023/12/02 08:09:01;;;;;;;7.17;5.13;;;;;;;;;;5079051;28;20632;-35
2023/12/02 08:11:28;;;;;;;7.17;5.20;;;;;;;;;;5082100;28;20202;-35
2023/12/02 08:13:55;;;;;;;9.93;5.90;;;;;;;;;;5078390;28;20236;-33
2023/12/02 08:16:22;;;;;;;6.97;3.90;;;;;;;;;;5088010;28;20220;-36
2023/12/02 08:18:49;;;;;;;8.53;5.70;;;;;;;;;;5085238;28;20243;-33
2023/12/02 08:21:17;;;;;;;7.33;5.87;;;;;;;;;;5075829;28;20204;-34
2023/12/02 08:23:45;;;;;;;7.37;5.70;;;;;;;;;;5087154;28;20220;-29
2023/12/02 08:26:12;;;;;;;10.40;6.33;;;;;;;;;;5091053;28;20208;-32
2023/12/02 08:28:39;;;;;;;9.13;6.30;;;;;;;;;;5085369;28;20197;-31
2023/12/02 08:31:07;;;;;;;8.20;6.03;;;;;;;;;;5092665;28;20205;-34
2023/12/02 08:33:34;;;;;;;7.40;5.40;;;;;;;;;;5095337;28;20199;-32
2023/12/02 08:36:01;;;;;;;8.23;5.50;;;;;;;;;;5090677;28;20231;-29
2023/12/02 08:38:34;;;;;;;9.73;5.77;;;;;;;;;;5083817;28;20306;-39
2023/12/02 08:41:03;;;;;;;7.03;5.23;;;;;;;;;;5092175;28;20212;-39
2023/12/02 08:43:30;;;;;;;10.20;7.00;;;;;;;;;;5073287;28;20299;-33
2023/12/02 08:45:57;;;;;;;11.23;7.20;;;;;;;;;;5080489;28;20295;-37
2023/12/02 08:48:24;;;;;;;10.47;6.43;;;;;;;;;;5093069;28;20226;-36
2023/12/02 08:50:52;;;;;;;8.50;5.97;;;;;;;;;;5100557;28;20204;-34
2023/12/02 08:53:19;;;;;;;9.73;6.33;;;;;;;;;;5072763;28;20294;-33
2023/12/02 08:55:46;;;;;;;9.33;6.83;;;;;;;;;;5080185;28;20230;-38
2023/12/02 08:58:15;;;;;;;10.10;6.87;;;;;;;;;;5099967;28;20200;-36
2023/12/02 09:00:42;;;;;;;10.77;6.10;;;;;;;;;;5082561;28;20289;-33
2023/12/02 09:03:10;;;;;;;9.90;6.13;;;;;;;;;;5089194;28;20209;-35
2023/12/02 09:05:37;;;;;;;9.53;5.20;;;;;;;;;;5097684;28;20274;-32
2023/12/02 09:08:04;;;;;;;12.67;7.87;;;;;;;;;;5093787;28;20209;-35
2023/12/02 09:10:31;;;;;;;10.83;7.80;;;;;;;;;;5084909;28;20243;-33
2023/12/02 09:12:59;;;;;;;9.83;6.03;;;;;;;;;;5107051;28;20207;-31
2023/12/02 09:15:40;;;;;;;9.83;6.73;;;;;;;;;;5071126;28;20316;-36
2023/12/02 09:18:11;;;;;;;11.13;6.57;;;;;;;;;;5085744;28;20211;-36
2023/12/02 09:20:48;;;;;;;10.23;6.67;;;;;;;;;;5098665;28;20287;-34
2023/12/02 09:23:16;;;;;;;10.07;6.33;;;;;;;;;;5079728;28;20209;-32
2023/12/02 09:25:44;;;;;;;9.87;5.83;;;;;;;;;;5083170;28;20201;-35
2023/12/02 09:28:15;;;;;;;8.07;5.87;;;;;;;;;;5074052;28;20209;-33
2023/12/02 09:30:50;;;;;;;10.77;6.43;;;;;;;;;;5087706;28;20204;-34
2023/12/02 09:33:17;;;;;;;10.80;6.43;;;;;;;;;;5075936;28;20651;-34
2023/12/02 09:35:44;;;;;;;13.17;6.90;;;;;;;;;;5091455;28;20231;-34
2023/12/02 09:38:12;;;;;;;9.10;6.23;;;;;;;;;;5098607;28;20199;-30
2023/12/02 09:40:49;;;;;;;11.60;6.73;;;;;;;;;;5083358;28;20595;-37
2023/12/02 09:43:27;;;;;;;11.40;7.23;;;;;;;;;;5085868;28;20286;-32
2023/12/02 09:46:04;;;;;;;11.60;7.17;;;;;;;;;;5079844;28;20288;-36
2023/12/02 09:48:32;;;;;;;12.03;7.43;;;;;;;;;;5094408;28;20203;-31
2023/12/02 09:51:03;;;;;;;7.73;5.47;;;;;;;;;;5087517;28;20228;-33
2023/12/02 09:53:36;;;;;;;10.23;6.90;;;;;;;;;;5100464;28;20204;-35
2023/12/02 09:56:07;;;;;;;11.10;6.13;;;;;;;;;;5083010;28;20212;-31
2023/12/02 09:58:37;;;;;;;9.70;6.77;;;;;;;;;;5080146;28;20753;-34
2023/12/02 10:01:08;;;;;;;10.17;6.80;;;;;;;;;;5090357;28;20203;-32
2023/12/02 10:03:49;;;;;;;10.77;6.73;;;;;;;;;;5086394;28;20209;-34
2023/12/02 10:06:28;;;;;;;6.07;4.37;;;;;;;;;;5083647;28;20543;-33
2023/12/02 10:09:01;;;;;;;13.63;7.67;;;;;;;;;;5084670;28;20292;-30
2023/12/02 10:11:32;;;;;;;12.10;6.67;;;;;;;;;;5094367;28;21313;-35
2023/12/02 10:14:00;;;;;;;10.47;6.10;;;;;;;;;;5077384;28;20223;-33
2023/12/02 10:16:30;;;;;;;7.93;5.03;;;;;;;;;;5092947;28;20224;-34
2023/12/02 10:19:00;;;;;;;11.03;6.10;;;;;;;;;;5111615;28;20211;-34
2023/12/02 10:21:29;;;;;;;10.43;6.33;;;;;;;;;;5110753;28;20233;-34
2023/12/02 10:23:58;;;;;;;12.10;6.73;;;;;;;;;;5081325;28;20224;-31
2023/12/02 10:26:27;;;;;;;9.43;5.70;;;;;;;;;;5101168;28;20203;-35
2023/12/02 10:28:57;;;;;;;10.83;6.60;;;;;;;;;;5085577;28;20567;-36
2023/12/02 10:31:26;;;;;;;11.03;7.23;;;;;;;;;;5088499;28;20204;-33
2023/12/02 10:33:58;;;;;;;10.70;6.77;;;;;;;;;;5097453;28;20232;-29
2023/12/02 10:36:28;;;;;;;11.07;6.50;;;;;;;;;;5101391;28;20224;-35
2023/12/02 10:38:57;;;;;;;10.47;6.60;;;;;;;;;;5082168;28;20197;-35
2023/12/02 10:41:28;;;;;;;13.87;7.03;;;;;;;;;;5087102;28;20193;-33
2023/12/02 10:43:56;;;;;;;7.67;5.23;;;;;;;;;;5100049;28;20224;-33
2023/12/02 10:46:24;;;;;;;8.37;5.50;;;;;;;;;;5074125;28;20259;-32
2023/12/02 10:48:52;;;;;;;8.60;4.73;;;;;;;;;;5111083;28;20311;-36
2023/12/02 10:51:21;;;;;;;11.20;7.17;;;;;;;;;;5101947;28;20196;-36
2023/12/02 10:53:48;;;;;;;5.07;3.13;;;;;;;;;;5089081;28;20650;-31
2023/12/02 10:56:21;;;;;;;8.60;5.67;;;;;;;;;;5100065;28;20243;-34
2023/12/02 10:58:50;;;;;;;9.33;6.30;;;;;;;;;;5090047;28;20295;-33
2023/12/02 11:01:19;;;;;;;10.53;7.37;;;;;;;;;;5082864;28;20211;-31
2023/12/02 11:03:51;;;;;;;10.53;7.40;;;;;;;;;;5102092;28;20238;-32
2023/12/02 11:06:27;;;;;;;8.80;6.40;;;;;;;;;;5110439;28;20196;-34
2023/12/02 11:08:55;;;;;;;12.37;7.40;;;;;;;;;;5091886;28;20514;-33
2023/12/02 11:11:29;;;;;;;9.93;6.83;;;;;;;;;;5069796;28;20331;-35
2023/12/02 11:13:59;;;;;;;11.53;6.20;;;;;;;;;;5077049;28;20229;-37
2023/12/02 11:16:30;;;;;;;11.20;6.67;;;;;;;;;;5082246;28;20233;-33
2023/12/02 11:19:03;;;;;;;7.00;4.60;;;;;;;;;;5083924;28;20268;-33
2023/12/02 11:21:35;;;;;;;9.40;6.17;;;;;;;;;;5090713;28;20215;-33
2023/12/02 11:24:08;;;;;;;11.33;6.10;;;;;;;;;;5078555;28;20228;-35
2023/12/02 11:26:40;;;;;;;9.80;6.87;;;;;;;;;;5084746;28;20212;-33
2023/12/02 11:29:15;;;;;;;10.10;6.57;;;;;;;;;;5072309;28;20486;-34
2023/12/02 11:31:50;;;;;;;8.90;5.93;;;;;;;;;;5084911;28;20196;-31
2023/12/02 11:34:26;;;;;;;10.57;6.10;;;;;;;;;;5084470;28;20235;-34
2023/12/02 11:37:01;;;;;;;11.23;5.27;;;;;;;;;;5091952;28;20216;-37
2023/12/02 11:39:36;;;;;;;6.57;4.57;;;;;;;;;;5089319;28;20200;-35
2023/12/02 11:42:10;;;;;;;7.00;4.67;;;;;;;;;;5102319;28;20646;-31
2023/12/02 11:44:40;;;;;;;8.33;5.13;;;;;;;;;;5082599;28;20231;-33
2023/12/02 11:47:19;;;;;;;9.10;5.50;;;;;;;;;;5072428;28;20193;-33
2023/12/02 11:49:52;;;;;;;7.40;6.07;;;;;;;;;;5086010;28;20282;-34
2023/12/02 11:52:23;;;;;;;29.50;14.63;;;;;;;;;;5096815;28;20208;-35
2023/12/02 11:55:00;;;;;;;10.00;6.83;;;;;;;;;;5079576;28;20696;-31
2023/12/02 11:57:31;;;;;;;3.43;2.63;;;;;;;;;;5097945;28;20703;-36
2023/12/02 12:00:07;;;;;;;23.67;13.60;;;;;;;;;;5088584;28;20192;-32
2023/12/02 12:02:42;;;;;;;9.80;7.00;;;;;;;;;;5079632;28;20243;-31
2023/12/02 12:05:25;;;;;;;11.17;7.13;;;;;;;;;;5075368;28;20220;-38
2023/12/02 12:07:59;;;;;;;8.57;6.30;;;;;;;;;;5090419;28;20208;-33
2023/12/02 12:10:34;;;;;;;10.50;6.60;;;;;;;;;;5103825;28;20763;-34
2023/12/02 12:13:02;;;;;;;5.93;3.67;;;;;;;;;;5081877;28;20205;-31
2023/12/02 12:15:29;;;;;;;6.20;4.17;;;;;;;;;;5092805;28;20227;-33
2023/12/02 12:17:56;;;;;;;8.93;5.60;;;;;;;;;;5071456;28;20225;-37
2023/12/02 12:20:42;;;;;;;9.07;6.40;;;;;;;;;;5084537;28;20204;-33
2023/12/02 12:23:11;;;;;;;11.17;6.23;;;;;;;;;;5095125;28;20263;-35
2023/12/02 12:25:38;;;;;;;10.17;6.40;;;;;;;;;;5082169;28;20227;-35
2023/12/02 12:28:06;;;;;;;8.87;5.87;;;;;;;;;;5077032;28;20199;-35
2023/12/02 12:30:43;;;;;;;6.80;4.67;;;;;;;;;;5075106;28;20208;-36
2023/12/02 12:33:11;;;;;;;8.80;6.00;;;;;;;;;;5100957;28;20202;-34
2023/12/02 12:35:39;;;;;;;6.77;4.83;;;;;;;;;;5086732;28;20789;-35
2023/12/02 12:38:07;;;;;;;8.90;5.97;;;;;;;;;;5096063;28;20212;-35
2023/12/02 12:40:37;;;;;;;5.53;4.40;;;;;;;;;;5090183;28;20212;-41
2023/12/02 12:43:04;;;;;;;5.10;4.53;;;;;;;;;;5094274;28;20208;-33
2023/12/02 12:45:33;;;;;;;7.03;5.67;;;;;;;;;;5087724;28;20306;-35
2023/12/02 12:48:00;;;;;;;7.60;5.70;;;;;;;;;;5088897;28;20204;-35
2023/12/02 12:50:30;;;;;;;8.73;6.50;;;;;;;;;;5077133;28;20205;-34
2023/12/02 12:53:01;;;;;;;8.70;5.80;;;;;;;;;;5083844;28;20203;-33
2023/12/02 12:55:30;;;;;;;7.23;5.17;;;;;;;;;;5079606;28;20251;-33
2023/12/02 12:58:02;;;;;;;7.43;4.90;;;;;;;;;;5099390;28;20220;-33
2023/12/02 13:00:35;;;;;;;9.03;5.70;;;;;;;;;;5076918;28;20213;-33
2023/12/02 13:03:10;;;;;;;9.70;6.20;;;;;;;;;;5082809;28;20235;-35
2023/12/02 13:05:42;;;;;;;6.67;4.67;;;;;;;;;;5080275;28;20730;-34
2023/12/02 13:08:14;;;;;;;7.77;4.77;;;;;;;;;;5082371;28;20316;-34
2023/12/02 13:10:41;;;;;;;7.57;5.50;;;;;;;;;;5087878;28;20204;-34
2023/12/02 13:13:13;;;;;;;8.57;5.83;;;;;;;;;;5086209;28;20726;-35
2023/12/02 13:15:40;;;;;;;8.33;6.13;;;;;;;;;;5082961;28;20228;-38
2023/12/02 13:18:08;;;;;;;7.47;5.53;;;;;;;;;;5098137;28;20311;-35
2023/12/02 13:20:36;;;;;;;7.80;5.77;;;;;;;;;;5093067;28;20300;-31
2023/12/02 13:23:04;;;;;;;8.13;5.40;;;;;;;;;;5077181;28;20213;-39
2023/12/02 13:25:34;;;;;;;5.73;5.10;;;;;;;;;;5080092;28;20229;-34
2023/12/02 13:28:06;;;;;;;6.57;4.53;;;;;;;;;;5090945;28;20226;-36
2023/12/02 13:30:36;;;;;;;5.53;4.17;;;;;;;;;;5062254;28;20257;-37
2023/12/02 13:33:07;;;;;;;5.53;4.30;;;;;;;;;;5073140;28;20200;-33
2023/12/02 13:35:37;;;;;;;6.23;4.67;;;;;;;;;;5093988;28;20246;-40
2023/12/02 13:38:09;;;;;;;5.53;4.00;;;;;;;;;;5089004;28;20216;-39
2023/12/02 13:40:39;;;;;;;3.20;2.57;;;;;;;;;;5074858;28;20197;-32
2023/12/02 13:43:07;;;;;;;5.33;3.90;;;;;;;;;;5088932;28;20236;-34
2023/12/02 13:45:38;;;;;;;7.40;4.37;;;;;;;;;;5079879;28;20307;-35
2023/12/02 13:48:06;;;;;;;6.37;4.30;;;;;;;;;;5077705;28;20215;-33
2023/12/02 13:50:35;;;;;;;9.77;5.60;;;;;;;;;;5086749;28;20219;-36
2023/12/02 13:53:11;;;;;;;6.77;4.47;;;;;;;;;;5083589;28;20236;-32
2023/12/02 13:55:47;;;;;;;5.13;4.03;;;;;;;;;;5076930;28;20231;-33
2023/12/02 13:58:20;;;;;;;4.97;3.37;;;;;;;;;;5090875;28;20306;-35
2023/12/02 14:00:53;;;;;;;10.00;3.53;;;;;;;;;;5076918;28;20288;-40
2023/12/02 14:03:29;;;;;;;7.60;4.53;;;;;;;;;;5084012;28;20209;-36
2023/12/02 14:05:59;;;;;;;6.20;3.87;;;;;;;;;;5080090;28;20206;-33
2023/12/02 14:08:31;;;;;;;7.93;4.93;;;;;;;;;;5086193;28;20292;-31
2023/12/02 14:10:58;;;;;;;4.27;3.53;;;;;;;;;;5080729;28;20215;-31
2023/12/02 14:13:31;;;;;;;8.20;4.40;;;;;;;;;;5079341;28;20216;-32
2023/12/02 14:16:21;;;;;;;7.60;5.10;;;;;;;;;;5072604;28;20291;-39
2023/12/02 14:19:18;;;;;;;5.50;3.80;;;;;;;;;;5080250;28;20205;-33
2023/12/02 14:21:59;;;;;;;5.90;5.00;;;;;;;;;;4995105;28;20290;-34
2023/12/02 14:24:34;;;;;;;5.70;3.93;;;;;;;;;;5057032;28;20228;-35
2023/12/02 14:27:13;;;;;;;5.40;4.07;;;;;;;;;;5088140;28;20187;-32
2023/12/02 14:29:51;;;;;;;6.77;4.63;;;;;;;;;;5076510;28;20220;-33
2023/12/02 14:32:24;;;;;;;5.90;4.50;;;;;;;;;;5084134;28;20209;-33
2023/12/02 14:34:59;;;;;;;5.70;4.13;;;;;;;;;;5088620;28;20247;-30
2023/12/02 14:37:46;;;;;;;5.67;4.87;;;;;;;;;;5084802;28;20601;-31
2023/12/02 14:40:24;;;;;;;7.47;4.60;;;;;;;;;;5081792;28;20229;-34
2023/12/02 14:42:57;;;;;;;5.67;4.33;;;;;;;;;;5092315;28;20205;-36
2023/12/02 14:45:24;;;;;;;5.53;4.33;;;;;;;;;;5084056;28;20234;-32
2023/12/02 14:48:03;;;;;;;4.87;4.17;;;;;;;;;;5079559;28;20202;-32